Time;durP1;ratioP1;P1;durP2;ratioP2;P2;SDS_P1;SDS_P2;PMS_P1;PMS_P2;Temp;Humidity;BMP_temperature;BMP_pressure;BME280_temperature;BME280_humidity;BME280_pressure;Samples;Min_cycle;Max_cycle;Signal;HPM_P1;HPM_P2
2021/09/01 00:00:16;;;;;;;13.07;7.68;;;;;;;13.26;90.67;101986.50;674229;29;1295;-85
2021/09/01 00:00:36;;;;;;;11.60;7.40;;;;;;;13.28;90.48;101990.03;677175;29;1116;-85
2021/09/01 00:00:57;;;;;;;13.27;7.82;;;;;;;13.26;90.60;101984.78;676631;29;1138;-85
2021/09/01 00:01:17;;;;;;;11.97;7.70;;;;;;;13.26;90.53;101984.78;673953;29;1193;-85
2021/09/01 00:01:38;;;;;;;13.47;7.90;;;;;;;13.22;90.51;101988.25;673540;29;4378;-85
2021/09/01 00:01:58;;;;;;;13.37;7.77;;;;;;;13.22;91.12;101990.00;674749;29;1114;-85
2021/09/01 00:02:18;;;;;;;14.30;8.00;;;;;;;13.19;91.48;101984.72;674219;29;2215;-85
2021/09/01 00:02:44;;;;;;;14.93;8.23;;;;;;;13.12;91.21;101989.06;674902;29;1092;-85
2021/09/01 00:03:04;;;;;;;13.68;8.25;;;;;;;13.08;91.33;101988.19;675459;29;1320;-85
2021/09/01 00:03:25;;;;;;;12.70;7.88;;;;;;;13.10;91.48;101985.56;674716;29;1423;-85
2021/09/01 00:03:45;;;;;;;11.00;7.72;;;;;;;13.17;91.31;101979.47;676904;29;925;-85
2021/09/01 00:04:06;;;;;;;10.90;7.60;;;;;;;13.26;90.81;101989.13;673882;29;1970;-85
2021/09/01 00:04:26;;;;;;;14.40;7.97;;;;;;;13.28;90.34;101988.28;669238;29;1218;-85
2021/09/01 00:04:46;;;;;;;12.88;8.23;;;;;;;13.28;90.26;101982.16;670055;29;4389;-85
2021/09/01 00:05:08;;;;;;;13.87;7.93;;;;;;;13.29;90.22;101984.78;670794;29;1936;-85
2021/09/01 00:05:29;;;;;;;12.73;7.90;;;;;;;13.25;90.32;101983.00;677298;29;2403;-85
2021/09/01 00:05:49;;;;;;;11.50;8.00;;;;;;;13.25;90.36;101983.00;677864;29;1407;-85
2021/09/01 00:06:10;;;;;;;11.50;7.70;;;;;;;13.24;90.62;101981.25;677999;29;1047;-85
2021/09/01 00:06:30;;;;;;;11.80;7.67;;;;;;;13.26;90.18;101983.88;675528;29;1289;-85
2021/09/01 00:06:50;;;;;;;13.40;7.80;;;;;;;13.25;90.79;101982.13;678384;29;1236;-85
2021/09/01 00:07:11;;;;;;;14.03;8.00;;;;;;;13.25;90.29;101983.00;676748;28;3276;-85
2021/09/01 00:07:31;;;;;;;13.57;7.93;;;;;;;13.31;90.30;101978.69;673130;29;2689;-85
2021/09/01 00:07:52;;;;;;;14.33;8.13;;;;;;;13.32;89.61;101988.28;673300;29;4342;-85
2021/09/01 00:08:12;;;;;;;13.73;8.18;;;;;;;13.28;90.38;101990.03;676543;29;3454;-85
2021/09/01 00:08:33;;;;;;;12.00;8.33;;;;;;;13.20;90.76;101986.50;671452;29;1345;-85
2021/09/01 00:08:57;;;;;;;11.93;8.15;;;;;;;13.17;91.23;101995.22;669370;29;1286;-85
2021/09/01 00:09:17;;;;;;;12.43;8.20;;;;;;;13.23;90.59;101987.38;671435;29;1272;-85
2021/09/01 00:09:38;;;;;;;13.25;7.88;;;;;;;13.28;90.15;101982.16;673253;29;1306;-85
2021/09/01 00:09:59;;;;;;;12.57;7.97;;;;;;;13.24;90.36;101986.50;679278;29;1190;-85
2021/09/01 00:10:19;;;;;;;13.10;8.43;;;;;;;13.17;90.84;101982.09;679226;29;1374;-85
2021/09/01 00:10:40;;;;;;;13.75;8.10;;;;;;;13.15;90.77;101998.69;679068;28;4382;-85
2021/09/01 00:11:00;;;;;;;13.23;7.65;;;;;;;13.14;91.01;101992.59;674571;29;2012;-85
2021/09/01 00:11:21;;;;;;;13.23;7.93;;;;;;;13.11;90.77;101990.81;676488;29;2152;-85
2021/09/01 00:11:42;;;;;;;13.15;8.35;;;;;;;13.13;90.87;101988.19;676850;29;1411;-85
2021/09/01 00:12:04;;;;;;;12.43;8.05;;;;;;;13.07;91.23;101994.28;676571;29;1412;-85
2021/09/01 00:12:24;;;;;;;11.82;8.30;;;;;;;13.05;91.65;101993.38;677030;29;1472;-85
2021/09/01 00:12:45;;;;;;;12.90;8.38;;;;;;;13.08;91.78;101988.19;679758;29;1282;-85
2021/09/01 00:13:06;;;;;;;12.48;8.07;;;;;;;13.20;91.19;101983.88;679377;29;948;-85
2021/09/01 00:13:26;;;;;;;13.23;7.87;;;;;;;13.24;90.46;101990.88;679231;29;1319;-85
2021/09/01 00:13:47;;;;;;;11.75;7.90;;;;;;;13.21;90.46;101994.38;678811;29;4368;-85
2021/09/01 00:14:07;;;;;;;11.63;8.05;;;;;;;13.19;90.67;101990.84;679052;29;3655;-85
2021/09/01 00:14:28;;;;;;;12.73;8.13;;;;;;;13.15;90.98;101993.44;678818;29;2465;-85
2021/09/01 00:14:48;;;;;;;13.90;8.40;;;;;;;13.11;91.25;101995.16;678717;29;1424;-84
2021/09/01 00:15:10;;;;;;;14.23;8.50;;;;;;;13.10;91.39;101994.31;674161;29;1163;-85
2021/09/01 00:15:30;;;;;;;12.82;8.55;;;;;;;13.11;91.13;101992.53;672319;29;1246;-85
2021/09/01 00:15:51;;;;;;;13.00;8.40;;;;;;;13.10;91.06;101994.31;670407;29;1230;-85
2021/09/01 00:16:25;;;;;;;11.40;8.30;;;;;;;13.13;91.11;101996.06;672252;29;1249;-85
2021/09/01 00:16:46;;;;;;;14.77;8.07;;;;;;;13.15;91.20;101993.44;678749;29;4400;-85
2021/09/01 00:17:06;;;;;;;13.77;8.30;;;;;;;13.12;91.55;101996.94;683275;28;1883;-85
2021/09/01 00:17:27;;;;;;;16.58;8.85;;;;;;;13.08;91.89;101989.91;681803;28;1374;-85
2021/09/01 00:17:47;;;;;;;15.93;8.53;;;;;;;13.04;91.92;102009.13;676769;29;1170;-85
2021/09/01 00:18:08;;;;;;;13.93;8.50;;;;;;;13.03;91.65;101996.88;677139;29;1264;-85
2021/09/01 00:18:29;;;;;;;14.25;8.80;;;;;;;13.01;91.96;101994.22;677145;29;794;-85
2021/09/01 00:18:49;;;;;;;13.33;8.37;;;;;;;13.03;91.93;101999.50;677662;29;1184;-85
2021/09/01 00:19:10;;;;;;;13.70;8.27;;;;;;;12.99;91.85;101995.09;679932;29;936;-85
2021/09/01 00:19:30;;;;;;;13.43;8.30;;;;;;;12.97;92.04;101996.84;677459;29;1418;-85
2021/09/01 00:19:51;;;;;;;16.03;9.17;;;;;;;12.92;93.00;101999.44;675852;29;4382;-85
2021/09/01 00:20:11;;;;;;;14.13;9.20;;;;;;;12.86;92.86;101995.03;676846;29;2050;-85
2021/09/01 00:20:33;;;;;;;13.48;9.13;;;;;;;12.85;93.39;101998.53;669206;29;1327;-85
2021/09/01 00:20:53;;;;;;;13.85;8.88;;;;;;;12.83;93.46;101987.13;673057;29;1179;-84
2021/09/01 00:21:13;;;;;;;13.43;8.60;;;;;;;12.82;93.01;102010.72;674427;29;1191;-85
2021/09/01 00:21:34;;;;;;;12.17;8.60;;;;;;;12.86;92.53;101989.78;677036;29;968;-85
2021/09/01 00:21:56;;;;;;;14.43;8.52;;;;;;;12.90;92.81;102011.66;679604;29;1304;-85
2021/09/01 00:22:16;;;;;;;14.98;9.23;;;;;;;12.86;93.66;101989.78;676290;29;1226;-85
2021/09/01 00:22:38;;;;;;;16.70;9.50;;;;;;;12.83;94.07;101989.75;676163;29;4380;-85
2021/09/01 00:22:58;;;;;;;16.58;9.80;;;;;;;12.82;93.44;102016.88;673331;29;2048;-85
2021/09/01 00:23:19;;;;;;;16.45;9.65;;;;;;;12.87;93.33;101991.53;674448;29;2182;-84
2021/09/01 00:23:39;;;;;;;14.60;9.10;;;;;;;12.91;93.20;101992.44;674218;29;1391;-85
2021/09/01 00:24:00;;;;;;;15.07;9.00;;;;;;;12.91;93.13;101993.31;672439;29;1975;-85
2021/09/01 00:24:20;;;;;;;14.15;8.98;;;;;;;12.92;93.22;101995.06;675171;29;1114;-85
2021/09/01 00:24:41;;;;;;;14.27;9.07;;;;;;;12.93;93.41;101996.81;676739;29;1401;-85
2021/09/01 00:25:03;;;;;;;17.13;9.38;;;;;;;12.94;93.37;101993.34;677661;29;1346;-85
2021/09/01 00:25:23;;;;;;;16.08;9.10;;;;;;;12.98;93.56;101990.72;675239;29;1332;-85
2021/09/01 00:25:44;;;;;;;15.23;9.60;;;;;;;12.99;93.12;101997.72;674734;29;4388;-85
2021/09/01 00:26:04;;;;;;;12.93;8.63;;;;;;;13.02;92.58;101990.75;672461;29;3838;-85
2021/09/01 00:26:25;;;;;;;12.40;8.37;;;;;;;13.06;92.56;101991.66;672427;29;1284;-85
2021/09/01 00:26:46;;;;;;;13.00;8.88;;;;;;;13.08;92.81;102005.66;674676;29;1254;-85
2021/09/01 00:27:07;;;;;;;12.55;8.93;;;;;;;13.08;93.07;101995.16;674397;29;1167;-85
2021/09/01 00:27:27;;;;;;;11.67;8.40;;;;;;;13.07;92.44;102003.91;677130;29;1343;-85
2021/09/01 00:27:47;;;;;;;11.95;8.40;;;;;;;13.07;92.78;101996.03;680147;29;1181;-85
2021/09/01 00:28:08;;;;;;;13.23;9.00;;;;;;;13.03;93.41;101991.63;680899;29;1225;-85
2021/09/01 00:28:28;;;;;;;14.50;9.73;;;;;;;13.02;92.63;101996.00;680298;29;1087;-85
2021/09/01 00:28:49;;;;;;;15.03;9.27;;;;;;;13.01;93.26;102007.38;676171;29;4409;-85
2021/09/01 00:29:10;;;;;;;13.35;8.95;;;;;;;12.98;93.36;102024.84;672722;29;2374;-85
2021/09/01 00:29:31;;;;;;;13.13;9.13;;;;;;;12.94;93.52;102016.97;674740;29;1541;-85
2021/09/01 00:29:54;;;;;;;12.00;8.70;;;;;;;12.95;93.18;101995.06;679866;29;989;-85
2021/09/01 00:30:14;;;;;;;13.30;8.38;;;;;;;13.01;92.67;102003.88;682497;28;1124;-85
2021/09/01 00:30:35;;;;;;;12.97;8.47;;;;;;;12.99;93.40;102003.88;680033;29;1201;-85
2021/09/01 00:30:55;;;;;;;12.27;8.63;;;;;;;12.97;93.18;101997.72;676550;29;1336;-84
2021/09/01 00:31:18;;;;;;;13.63;8.90;;;;;;;12.93;93.24;102006.44;679349;29;1242;-85
2021/09/01 00:31:39;;;;;;;13.88;9.23;;;;;;;12.91;93.47;102002.94;679512;29;4375;-85
2021/09/01 00:31:59;;;;;;;14.93;9.40;;;;;;;12.98;92.86;102006.47;678828;29;2853;-85
2021/09/01 00:32:19;;;;;;;14.63;8.77;;;;;;;13.08;92.39;102000.41;676897;29;1261;-85
2021/09/01 00:32:40;;;;;;;13.85;9.07;;;;;;;13.08;92.42;102010.91;679230;29;1115;-85
2021/09/01 00:33:00;;;;;;;14.73;9.57;;;;;;;13.05;92.91;102003.88;680036;29;1236;-85
2021/09/01 00:33:21;;;;;;;15.32;9.20;;;;;;;13.04;92.78;101999.53;681718;29;1490;-85
2021/09/01 00:33:41;;;;;;;15.13;9.20;;;;;;;13.06;92.66;102015.28;676398;29;933;-85
2021/09/01 00:34:02;;;;;;;13.00;8.77;;;;;;;13.12;92.45;102004.81;679333;29;1333;-84
2021/09/01 00:34:22;;;;;;;14.07;8.88;;;;;;;13.14;92.46;102005.72;680102;29;1177;-85
2021/09/01 00:34:43;;;;;;;16.47;9.70;;;;;;;13.11;93.00;102000.41;678270;29;4398;-85
2021/09/01 00:35:04;;;;;;;15.27;9.60;;;;;;;13.09;92.18;102008.28;678343;29;2096;-84
2021/09/01 00:35:24;;;;;;;14.87;9.63;;;;;;;13.08;93.50;102006.56;679645;29;1408;-84
2021/09/01 00:35:44;;;;;;;13.07;9.40;;;;;;;13.04;93.57;102010.03;677571;29;1088;-85
2021/09/01 00:36:05;;;;;;;14.53;9.03;;;;;;;13.05;92.82;102005.66;680012;29;1192;-85
2021/09/01 00:36:25;;;;;;;15.25;8.98;;;;;;;13.08;92.72;102013.53;676458;29;1105;-85
2021/09/01 00:36:46;;;;;;;15.10;9.30;;;;;;;13.07;93.01;101998.63;677412;29;1139;-84
2021/09/01 00:37:06;;;;;;;13.40;9.07;;;;;;;13.07;92.69;102009.16;677419;29;1077;-85
2021/09/01 00:37:26;;;;;;;12.83;8.77;;;;;;;13.09;92.94;102007.41;674070;29;1118;-85
2021/09/01 00:37:47;;;;;;;13.50;9.23;;;;;;;13.10;93.05;102003.94;675204;29;4393;-85
2021/09/01 00:38:07;;;;;;;15.48;9.45;;;;;;;13.08;93.12;102011.81;679780;29;2460;-85
2021/09/01 00:38:27;;;;;;;15.97;9.60;;;;;;;13.05;93.58;102005.66;682356;29;1252;-85
2021/09/01 00:38:48;;;;;;;16.45;9.63;;;;;;;13.04;93.81;102009.13;679812;29;1168;-85
2021/09/01 00:39:09;;;;;;;15.70;9.70;;;;;;;13.04;93.72;102004.78;677681;29;1252;-85
2021/09/01 00:39:29;;;;;;;17.07;9.67;;;;;;;13.03;94.25;102010.00;673050;29;1235;-84
2021/09/01 00:39:49;;;;;;;17.03;9.97;;;;;;;13.03;94.00;102010.00;673287;29;1069;-84
2021/09/01 00:40:10;;;;;;;16.60;9.98;;;;;;;13.02;94.25;102008.25;675030;29;1384;-85
2021/09/01 00:40:31;;;;;;;16.60;9.77;;;;;;;13.00;94.02;102003.00;679325;29;1545;-85
2021/09/01 00:40:53;;;;;;;15.53;9.70;;;;;;;12.98;94.54;102012.59;679490;29;4340;-85
2021/09/01 00:41:34;;;;;;;17.05;10.10;;;;;;;12.98;93.86;102002.09;679631;29;2393;-85
2021/09/01 00:41:54;;;;;;;16.85;10.40;;;;;;;12.98;94.12;102009.09;674161;29;1132;-85
2021/09/01 00:42:15;;;;;;;16.67;10.63;;;;;;;12.97;94.33;101999.47;677054;29;1132;-85
2021/09/01 00:42:36;;;;;;;18.55;10.38;;;;;;;12.97;93.97;102000.34;676966;29;1261;-85
2021/09/01 00:42:57;;;;;;;19.55;10.43;;;;;;;12.98;94.65;102003.84;679629;29;1446;-85
2021/09/01 00:43:17;;;;;;;16.92;10.45;;;;;;;12.94;94.83;101995.06;679519;29;1243;-85
2021/09/01 00:43:38;;;;;;;15.57;10.40;;;;;;;12.99;94.07;102002.97;679493;29;4507;-84
2021/09/01 00:44:27;;;;;;;16.30;9.87;;;;;;;12.95;94.67;102010.81;676865;29;2723;-85
2021/09/01 00:44:47;;;;;;;16.75;10.93;;;;;;;12.92;94.82;102005.56;676073;29;1210;-85
2021/09/01 00:45:09;;;;;;;18.03;10.63;;;;;;;12.89;95.07;102007.28;669797;29;1094;-85
2021/09/01 00:45:29;;;;;;;17.73;10.88;;;;;;;12.86;95.26;102004.63;672640;29;1366;-85
2021/09/01 00:45:50;;;;;;;17.40;10.80;;;;;;;12.88;95.43;102006.41;677873;29;1136;-85
2021/09/01 00:46:10;;;;;;;18.80;11.32;;;;;;;12.86;95.45;102002.91;676800;29;1270;-84
2021/09/01 00:46:31;;;;;;;18.17;11.00;;;;;;;12.86;95.55;102008.16;677345;29;980;-85
2021/09/01 00:46:52;;;;;;;17.33;10.83;;;;;;;12.84;95.53;102015.13;676520;29;4396;-85
2021/09/01 00:47:17;;;;;;;16.60;10.65;;;;;;;12.84;95.51;102003.75;676810;29;1318;-85
2021/09/01 00:47:38;;;;;;;20.85;11.60;;;;;;;12.84;94.63;101999.38;677783;29;1220;-85
2021/09/01 00:47:58;;;;;;;20.90;11.07;;;;;;;12.86;94.40;102010.78;681420;29;1146;-85
2021/09/01 00:48:20;;;;;;;19.33;10.47;;;;;;;12.86;94.58;102013.41;676344;29;1460;-85
2021/09/01 00:48:40;;;;;;;16.42;10.57;;;;;;;12.88;95.31;102011.66;672218;29;1337;-85
2021/09/01 00:49:00;;;;;;;18.45;11.02;;;;;;;12.87;95.04;102012.50;672139;29;1154;-85
2021/09/01 00:49:22;;;;;;;19.13;11.20;;;;;;;12.87;95.10;102002.00;674523;29;1218;-85
2021/09/01 00:49:42;;;;;;;18.42;10.73;;;;;;;12.88;94.90;102011.66;671094;29;4379;-85
2021/09/01 00:50:07;;;;;;;18.33;10.40;;;;;;;12.90;94.19;102002.06;671947;29;2322;-85
2021/09/01 00:50:28;;;;;;;16.15;9.95;;;;;;;12.95;93.98;102009.97;674393;29;1173;-85
2021/09/01 00:50:56;;;;;;;15.03;9.60;;;;;;;13.02;93.74;102003.00;671391;29;1290;-84
2021/09/01 00:51:17;;;;;;;15.52;10.13;;;;;;;13.03;94.54;102007.38;674766;29;1302;-85
2021/09/01 00:51:37;;;;;;;15.43;9.80;;;;;;;13.03;94.29;102004.75;676282;29;1269;-84
2021/09/01 00:51:59;;;;;;;16.73;9.55;;;;;;;13.05;94.26;102006.50;674650;29;1305;-85
2021/09/01 00:52:20;;;;;;;16.58;9.95;;;;;;;13.07;93.48;102011.78;673556;29;1298;-85
2021/09/01 00:52:41;;;;;;;15.48;9.57;;;;;;;13.12;92.81;102007.44;676531;29;4460;-85
2021/09/01 00:53:01;;;;;;;14.60;9.20;;;;;;;13.15;92.67;102002.19;681348;29;3893;-85
2021/09/01 00:53:27;;;;;;;14.00;9.50;;;;;;;13.21;92.75;102002.25;679839;29;1419;-85
2021/09/01 00:53:49;;;;;;;15.40;9.70;;;;;;;13.20;93.24;102008.38;678722;29;1165;-84
2021/09/01 00:54:11;;;;;;;15.20;10.00;;;;;;;13.19;93.51;102009.22;677121;29;1349;-85
2021/09/01 00:54:31;;;;;;;14.73;10.15;;;;;;;13.18;94.54;102004.88;674451;29;1215;-85
2021/09/01 00:54:52;;;;;;;15.98;10.50;;;;;;;13.16;94.14;102006.59;674744;29;1233;-85
2021/09/01 00:55:13;;;;;;;15.03;9.27;;;;;;;13.19;93.57;102009.22;672614;29;1390;-85
2021/09/01 00:55:33;;;;;;;13.82;9.07;;;;;;;13.20;93.44;102002.25;675988;29;3217;-85
2021/09/01 00:55:56;;;;;;;16.02;9.85;;;;;;;13.19;94.11;102009.22;673818;29;4364;-85
2021/09/01 00:56:20;;;;;;;18.60;10.48;;;;;;;13.18;94.00;102007.50;676835;29;1309;-84
2021/09/01 00:56:52;;;;;;;17.23;10.15;;;;;;;13.15;94.36;102017.94;674470;29;981;-85
2021/09/01 00:57:14;;;;;;;15.73;9.85;;;;;;;13.15;93.22;102017.09;674504;29;953;-85
2021/09/01 00:57:39;;;;;;;19.00;10.55;;;;;;;13.16;93.77;102013.59;671411;29;1212;-85
2021/09/01 00:58:01;;;;;;;19.70;10.50;;;;;;;13.14;93.71;102005.72;670034;29;929;-85
2021/09/01 00:58:21;;;;;;;15.38;9.95;;;;;;;13.14;93.72;102008.34;671377;29;1138;-84
2021/09/01 00:58:42;;;;;;;14.83;10.10;;;;;;;13.13;93.38;102009.19;672535;29;4504;-85
2021/09/01 00:59:02;;;;;;;13.95;9.52;;;;;;;13.17;92.88;102010.13;676856;29;1242;-85
2021/09/01 00:59:27;;;;;;;15.17;9.33;;;;;;;13.18;93.16;102011.84;677091;29;1481;-85
2021/09/01 00:59:48;;;;;;;15.30;9.55;;;;;;;13.18;93.03;102007.50;676999;29;1228;-85
2021/09/01 01:00:12;;;;;;;13.70;9.23;;;;;;;13.21;93.00;102012.75;679295;29;1162;-85
2021/09/01 01:00:52;;;;;;;15.75;10.00;;;;;;;13.20;94.10;102008.38;679649;29;1304;-85
2021/09/01 01:01:16;;;;;;;16.92;10.57;;;;;;;13.16;93.73;102003.97;675779;29;1294;-85
2021/09/01 01:01:36;;;;;;;16.58;10.27;;;;;;;13.17;94.01;102005.72;676166;29;2156;-85
2021/09/01 01:01:59;;;;;;;15.75;9.98;;;;;;;13.16;94.01;102003.09;674164;29;5159;-85
2021/09/01 01:02:22;;;;;;;16.25;9.90;;;;;;;13.17;93.56;102010.97;675580;29;1275;-85
2021/09/01 01:02:45;;;;;;;16.42;10.15;;;;;;;13.19;93.74;102005.72;675699;29;858;-84
2021/09/01 01:03:05;;;;;;;18.20;10.40;;;;;;;13.19;93.35;102009.22;674234;29;1342;-85
2021/09/01 01:03:26;;;;;;;15.93;9.20;;;;;;;13.20;93.00;102004.88;674666;29;1308;-85
2021/09/01 01:03:52;;;;;;;16.85;9.05;;;;;;;13.23;92.22;102000.50;672238;29;1307;-85
2021/09/01 01:04:12;;;;;;;13.57;8.88;;;;;;;13.27;91.93;102010.16;676485;29;1233;-85
2021/09/01 01:04:34;;;;;;;16.27;9.60;;;;;;;13.28;92.83;102004.03;677255;29;2008;-85
2021/09/01 01:04:55;;;;;;;20.05;10.55;;;;;;;13.26;93.23;101999.63;673775;29;4394;-85
2021/09/01 01:05:18;;;;;;;17.13;10.15;;;;;;;13.24;93.44;102007.50;674410;29;1229;-85
2021/09/01 01:05:38;;;;;;;15.52;9.82;;;;;;;13.23;94.25;102007.50;675221;29;1241;-85
2021/09/01 01:05:58;;;;;;;18.73;10.25;;;;;;;13.20;94.78;102005.72;675233;29;1226;-85
2021/09/01 01:06:26;;;;;;;17.73;10.27;;;;;;;13.21;93.83;102017.09;677661;29;924;-85
2021/09/01 01:06:46;;;;;;;17.55;9.95;;;;;;;13.21;93.50;102009.22;680117;29;1240;-85
2021/09/01 01:07:10;;;;;;;16.13;9.93;;;;;;;13.23;93.64;102002.25;675833;29;1209;-84
2021/09/01 01:07:31;;;;;;;17.38;9.98;;;;;;;13.23;93.39;102007.50;674041;29;1881;-85
2021/09/01 01:07:51;;;;;;;15.07;9.30;;;;;;;13.25;93.05;102011.91;673783;29;4394;-85
2021/09/01 01:08:13;;;;;;;14.45;8.93;;;;;;;13.25;93.48;102006.66;671280;29;1149;-85
2021/09/01 01:08:33;;;;;;;16.00;9.68;;;;;;;13.25;93.92;102005.75;674719;29;1209;-85
2021/09/01 01:08:54;;;;;;;16.13;9.83;;;;;;;13.23;92.92;102004.88;672934;29;1166;-85
2021/09/01 01:09:14;;;;;;;14.77;9.05;;;;;;;13.24;92.40;102012.75;678734;29;1328;-85
2021/09/01 01:09:36;;;;;;;13.90;9.00;;;;;;;13.28;92.28;102011.91;681855;28;1247;-85
2021/09/01 01:09:59;;;;;;;14.98;9.10;;;;;;;13.31;92.92;102015.44;681553;29;1260;-85
2021/09/01 01:10:19;;;;;;;16.90;9.57;;;;;;;13.29;93.14;102008.41;681846;28;1190;-85
2021/09/01 01:10:42;;;;;;;17.13;9.77;;;;;;;13.28;93.83;102009.28;681769;28;4392;-85
2021/09/01 01:11:03;;;;;;;17.08;10.55;;;;;;;13.27;93.68;102012.78;677365;29;1272;-84
2021/09/01 01:11:23;;;;;;;15.27;9.70;;;;;;;13.25;93.53;102011.00;674626;29;1282;-85
2021/09/01 01:12:07;;;;;;;17.27;10.07;;;;;;;13.28;92.85;102013.66;674981;29;1044;-85
2021/09/01 01:12:27;;;;;;;15.93;9.82;;;;;;;13.27;92.54;102010.16;674784;29;1422;-85
2021/09/01 01:12:48;;;;;;;18.93;9.90;;;;;;;13.28;92.34;102009.28;675174;29;1247;-85
2021/09/01 01:13:09;;;;;;;15.47;9.53;;;;;;;13.28;92.98;102019.78;674529;29;923;-85
2021/09/01 01:13:29;;;;;;;15.10;10.00;;;;;;;13.26;92.85;102016.28;675711;29;2027;-85
2021/09/01 01:13:51;;;;;;;16.70;9.87;;;;;;;13.26;92.98;102011.03;674015;29;4553;-85
2021/09/01 01:14:11;;;;;;;18.45;9.73;;;;;;;13.28;93.44;102008.41;677224;29;994;-85
2021/09/01 01:14:36;;;;;;;15.83;9.50;;;;;;;13.27;93.84;102006.66;679458;29;1216;-86
2021/09/01 01:14:57;;;;;;;14.43;9.32;;;;;;;13.26;93.73;102011.03;682092;29;1411;-85
2021/09/01 01:15:17;;;;;;;17.35;9.98;;;;;;;13.24;93.05;102011.91;679648;29;1242;-85
2021/09/01 01:15:40;;;;;;;15.80;10.03;;;;;;;13.23;94.09;102020.63;676571;29;1146;-85
2021/09/01 01:16:01;;;;;;;15.15;9.80;;;;;;;13.22;94.22;102019.78;674556;29;1205;-85
2021/09/01 01:16:22;;;;;;;17.13;10.15;;;;;;;13.21;94.10;102010.13;679391;29;1978;-85
2021/09/01 01:16:43;;;;;;;18.10;9.80;;;;;;;13.20;93.52;102005.72;676678;29;4422;-84
2021/09/01 01:17:17;;;;;;;15.75;9.82;;;;;;;13.23;93.48;102010.13;681529;29;1290;-84
2021/09/01 01:17:38;;;;;;;14.73;9.55;;;;;;;13.23;93.30;102005.75;679511;29;1459;-85
2021/09/01 01:17:59;;;;;;;13.02;8.95;;;;;;;13.25;92.90;102003.13;680164;29;917;-84
2021/09/01 01:18:19;;;;;;;13.27;8.63;;;;;;;13.27;92.71;102012.78;676808;29;1298;-85
2021/09/01 01:18:41;;;;;;;14.10;8.82;;;;;;;13.28;92.79;102014.53;679976;29;1223;-85
2021/09/01 01:19:02;;;;;;;15.30;9.05;;;;;;;13.29;92.94;102013.69;676831;29;969;-85
2021/09/01 01:19:22;;;;;;;17.23;9.20;;;;;;;13.32;93.11;102025.06;677049;29;2148;-85
2021/09/01 01:19:47;;;;;;;15.25;9.23;;;;;;;13.31;93.25;102002.31;674322;29;4378;-85
2021/09/01 01:20:08;;;;;;;15.68;9.10;;;;;;;13.32;93.17;102006.66;669229;29;1014;-84
2021/09/01 01:20:29;;;;;;;16.05;9.27;;;;;;;13.31;93.50;102007.56;669378;29;1336;-85
2021/09/01 01:20:50;;;;;;;15.82;9.30;;;;;;;13.30;94.08;101998.78;671981;29;1213;-85
2021/09/01 01:21:12;;;;;;;15.60;9.50;;;;;;;13.31;93.90;102018.06;674397;29;1192;-84
2021/09/01 01:21:32;;;;;;;14.85;9.73;;;;;;;13.28;93.80;102009.28;677094;29;1413;-85
2021/09/01 01:21:53;;;;;;;15.97;9.40;;;;;;;13.28;93.24;101998.78;677338;29;1258;-86
2021/09/01 01:22:16;;;;;;;14.07;8.97;;;;;;;13.31;93.07;102012.81;676757;29;3188;-85
2021/09/01 01:22:36;;;;;;;14.38;8.88;;;;;;;13.34;93.56;102010.19;676975;29;2911;-85
2021/09/01 01:22:57;;;;;;;16.10;9.60;;;;;;;13.33;93.94;102013.69;676457;29;5689;-85
2021/09/01 01:23:18;;;;;;;16.02;9.77;;;;;;;13.32;93.58;102010.19;676560;29;1202;-85
2021/09/01 01:23:39;;;;;;;15.55;9.50;;;;;;;13.29;93.46;102007.53;672179;29;1299;-85
2021/09/01 01:24:00;;;;;;;14.80;9.70;;;;;;;13.29;93.67;102011.06;671825;29;1978;-85
2021/09/01 01:24:20;;;;;;;16.00;9.98;;;;;;;13.28;93.82;102009.28;673897;29;1152;-85
2021/09/01 01:25:06;;;;;;;16.37;9.47;;;;;;;13.27;94.37;102012.78;671421;29;1229;-85
2021/09/01 01:25:47;;;;;;;14.85;9.50;;;;;;;13.25;94.79;102011.91;672511;29;2161;-85
2021/09/01 01:26:08;;;;;;;17.00;9.73;;;;;;;13.24;94.92;102017.16;678424;29;5470;-85
2021/09/01 01:26:29;;;;;;;16.88;10.20;;;;;;;13.22;95.04;102009.25;680671;29;1137;-85
2021/09/01 01:26:49;;;;;;;17.20;10.00;;;;;;;13.22;94.60;102017.16;682293;29;1332;-85
2021/09/01 01:27:31;;;;;;;15.40;9.83;;;;;;;13.23;94.27;102013.63;678756;29;1156;-85
2021/09/01 01:27:52;;;;;;;15.10;9.10;;;;;;;13.24;94.14;102018.00;672231;29;1313;-85
2021/09/01 01:28:12;;;;;;;16.67;9.20;;;;;;;13.25;94.55;102016.25;676456;29;1283;-85
2021/09/01 01:28:33;;;;;;;15.50;9.33;;;;;;;13.23;95.08;102011.00;674396;29;2108;-85
2021/09/01 01:28:56;;;;;;;16.23;9.90;;;;;;;13.22;95.05;102024.13;673589;29;4362;-84
2021/09/01 01:29:16;;;;;;;16.70;10.15;;;;;;;13.21;94.82;102020.63;674063;29;1420;-84
2021/09/01 01:29:37;;;;;;;16.95;10.18;;;;;;;13.20;95.20;102018.88;677018;29;1295;-85
2021/09/01 01:30:19;;;;;;;15.17;9.73;;;;;;;13.21;95.59;102018.00;679769;29;1155;-85
2021/09/01 01:30:42;;;;;;;15.85;9.80;;;;;;;13.22;94.27;102019.78;677011;29;1071;-84
2021/09/01 01:31:02;;;;;;;16.92;9.75;;;;;;;13.24;94.10;102020.63;676955;29;3801;-85
2021/09/01 01:31:23;;;;;;;16.77;9.77;;;;;;;13.25;94.25;102021.50;675703;29;2149;-85
2021/09/01 01:31:43;;;;;;;14.63;8.90;;;;;;;13.27;93.55;102019.78;676504;29;4421;-84
2021/09/01 01:32:04;;;;;;;17.05;9.25;;;;;;;13.28;94.28;102016.28;676342;29;1127;-85
2021/09/01 01:32:24;;;;;;;20.13;10.37;;;;;;;13.28;94.82;102022.41;674680;29;1131;-85
2021/09/01 01:32:50;;;;;;;18.98;10.18;;;;;;;13.25;95.33;102025.03;671878;29;1285;-85
2021/09/01 01:33:12;;;;;;;15.02;9.63;;;;;;;13.24;95.20;102018.00;672213;29;1030;-84
2021/09/01 01:33:33;;;;;;;17.33;10.52;;;;;;;13.22;94.89;102021.50;674645;29;1553;-85
2021/09/01 01:33:54;;;;;;;16.90;9.80;;;;;;;13.22;93.95;102025.03;674338;29;988;-84
2021/09/01 01:34:15;;;;;;;15.95;9.52;;;;;;;13.25;93.94;102018.88;674058;29;2204;-85
2021/09/01 01:34:35;;;;;;;16.20;9.70;;;;;;;13.26;94.17;102024.16;676270;29;1261;-85
2021/09/01 01:34:55;;;;;;;15.70;9.65;;;;;;;13.27;94.05;102017.16;673536;29;4362;-85
2021/09/01 01:35:35;;;;;;;14.13;9.17;;;;;;;13.32;93.82;102025.06;676786;29;1070;-85
2021/09/01 01:35:56;;;;;;;17.83;9.60;;;;;;;13.29;94.66;102021.56;676735;29;857;-84
2021/09/01 01:36:16;;;;;;;16.27;9.60;;;;;;;13.34;93.88;102028.59;674236;29;1101;-85
2021/09/01 01:36:37;;;;;;;16.40;9.70;;;;;;;13.34;94.37;102024.19;676969;29;1179;-85
2021/09/01 01:36:57;;;;;;;17.27;9.85;;;;;;;13.29;94.36;102026.81;677161;29;1257;-85
2021/09/01 01:37:17;;;;;;;15.93;9.70;;;;;;;13.29;93.36;102024.19;674001;29;2223;-85
2021/09/01 01:37:40;;;;;;;16.00;9.60;;;;;;;13.31;93.97;102020.69;676351;29;4377;-84
2021/09/01 01:38:05;;;;;;;17.00;9.80;;;;;;;13.31;93.87;102023.31;675011;29;1267;-85
2021/09/01 01:38:25;;;;;;;17.65;10.50;;;;;;;13.30;94.19;102017.16;682297;29;1316;-85
2021/09/01 01:38:46;;;;;;;15.30;9.67;;;;;;;13.32;93.72;102030.31;681677;29;1244;-85
2021/09/01 01:39:06;;;;;;;15.88;9.45;;;;;;;13.34;92.98;102025.97;682315;29;1129;-85
2021/09/01 01:39:27;;;;;;;17.42;10.23;;;;;;;13.35;93.44;102025.09;676977;29;1254;-85
2021/09/01 01:39:47;;;;;;;20.00;10.57;;;;;;;13.36;94.09;102026.84;674187;29;1449;-85
2021/09/01 01:40:08;;;;;;;17.35;9.50;;;;;;;13.37;93.09;102029.50;674187;29;2086;-85
2021/09/01 01:40:29;;;;;;;14.57;8.97;;;;;;;13.38;92.94;102039.13;677048;29;2435;-84
2021/09/01 01:40:49;;;;;;;15.45;9.10;;;;;;;13.40;93.24;102031.25;675714;29;4371;-85
2021/09/01 01:41:10;;;;;;;14.30;9.40;;;;;;;13.39;93.52;102029.53;679978;29;1354;-85
2021/09/01 01:41:30;;;;;;;14.38;9.93;;;;;;;13.36;94.63;102027.75;678034;29;1198;-84
2021/09/01 01:41:51;;;;;;;19.83;9.80;;;;;;;13.34;94.61;102029.44;674315;29;1290;-85
2021/09/01 01:42:12;;;;;;;17.13;9.23;;;;;;;13.36;93.02;102029.47;672566;29;1273;-85
2021/09/01 01:42:42;;;;;;;14.57;8.63;;;;;;;13.39;93.62;102026.91;673265;29;1262;-85
2021/09/01 01:43:04;;;;;;;17.50;9.50;;;;;;;13.38;94.56;102028.63;675277;29;2018;-85